Latest Weather Observations for Narrandera Airport

IDN60801

Issued at 6:04 am EST Saturday 25 June 2016 (issued every 30 minutes, with the page automatically refreshed every 10 minutes)

About weather observations | Map of weather stations | Latest weather observations for NSW | Other Formats
Station Details ID: 074148 Name: NARRANDERA AIRPORT AWS Lat: -34.70 Lon: 146.51 Height: 145.0 m
Data from the previous 72 hours. | See also: Recent months at Narrandera Airport
Date/Time
EST
Temp
°C
App
Temp
°C
Dew
Point
°C
Rel
Hum
%
Delta-T
°C
Wind Press
QNH
hPa
Press
MSL
hPa
Rain since
9am
mm
Dir  Spd
km/h
Gust
km/h
Spd
kts
Gust
kts
25/06:00am 1.9 -2.4 1.2 95 0.3 WSW 13 17 7 9 1021.8 1022.0 4.0
25/05:30am 1.8 -1.4 0.8 93 0.4 WSW 7 13 4 7 1021.6 1021.8 4.0
25/05:00am 2.1 -1.4 1.1 93 0.4 WSW 9 13 5 7 1021.4 1021.6 4.0
25/04:30am 2.3 -1.6 1.0 91 0.5 WSW 11 19 6 10 1021.3 1021.5 4.0
25/04:00am 2.5 -1.0 1.0 90 0.6 WSW 9 15 5 8 1021.1 1021.3 4.0
25/03:30am 2.6 -0.6 0.8 88 0.7 WSW 7 11 4 6 1020.9 1021.1 4.0
25/03:00am 3.0 -1.3 1.1 87 0.7 WSW 13 17 7 9 1020.6 1020.8 4.0
25/02:30am 3.5 -1.1 1.4 86 0.8 WSW 15 20 8 11 1020.5 1020.7 4.0
25/02:00am 3.6 -0.7 1.3 85 0.9 WSW 13 19 7 10 1020.5 1020.7 4.0
25/01:30am 3.7 -0.6 1.3 84 0.9 WSW 13 17 7 9 1020.2 1020.4 4.0
25/01:00am 3.9 -1.1 1.3 83 1.0 WSW 17 24 9 13 1019.9 1020.1 4.0
25/12:30am 4.0 -0.6 1.5 84 1.0 WSW 15 22 8 12 1019.8 1020.0 4.0
25/12:00am 4.4 -1.1 1.8 83 1.0 WSW 20 28 11 15 1019.7 1019.9 4.0
 
Date/Time
EST
Temp
°C
App
Temp
°C
Dew
Point
°C
Rel
Hum
%
Delta-T
°C
Wind Press
QNH
hPa
Press
MSL
hPa
Rain since
9am
mm
Dir  Spd
km/h
Gust
km/h
Spd
kts
Gust
kts
24/11:30pm 4.6 -1.3 2.0 83 1.0 W 22 32 12 17 1019.2 1019.5 4.0
24/11:00pm 4.6 -0.7 2.0 83 1.0 W 19 26 10 14 1019.1 1019.4 4.0
24/10:30pm 4.9 -0.4 2.1 82 1.1 W 19 28 10 15 1018.7 1019.0 4.0
24/10:00pm 5.0 0.5 2.0 81 1.2 WSW 15 20 8 11 1018.7 1019.0 4.0
24/09:30pm 5.4 0.9 2.2 80 1.3 WSW 15 22 8 12 1018.1 1018.3 4.0
24/09:00pm 5.7 1.6 2.4 79 1.4 WSW 13 24 7 13 1017.6 1017.8 4.0
24/08:30pm 6.2 1.8 2.5 77 1.5 WSW 15 24 8 13 1017.2 1017.4 4.0
24/08:00pm 6.5 1.7 2.6 76 1.6 WSW 17 24 9 13 1016.9 1017.1 4.0
24/07:30pm 6.3 1.5 2.6 77 1.5 W 17 24 9 13 1016.1 1016.3 4.0
24/07:00pm 6.8 2.1 2.9 76 1.6 W 17 24 9 13 1015.5 1015.7 4.0
24/06:30pm 7.0 2.3 2.9 75 1.7 W 17 24 9 13 1014.9 1015.1 4.0
24/06:00pm 7.2 2.5 3.1 75 1.7 W 17 24 9 13 1014.3 1014.5 4.0
24/05:30pm 7.5 2.5 3.6 76 1.7 W 19 28 10 15 1013.6 1013.8 4.0
24/05:00pm 6.9 2.7 3.9 81 1.3 W 15 22 8 12 1012.7 1012.8 4.0
24/04:30pm 7.3 2.1 3.4 76 1.7 W 20 33 11 18 1012.1 1012.3 3.8
24/04:00pm 7.1 -0.4 3.3 77 1.6 WSW 32 50 17 27 1011.6 1011.8 3.8
24/03:56pm 7.7 1.0 3.4 74 1.8 WSW 28 50 15 27 1011.5 1011.7 3.8
24/03:30pm 8.4 2.5 3.7 72 2.0 WSW 24 35 13 19 1011.0 1011.2 3.6
24/03:00pm 7.4 -0.1 3.3 75 1.8 W 32 57 17 31 1010.5 1010.7 3.6
24/02:31pm 8.8 1.4 4.2 73 2.0 W 32 50 17 27 1009.9 1010.1 3.6
24/02:30pm 8.8 1.2 4.0 72 2.1 W 33 50 18 27 1009.9 1010.1 3.6
24/02:19pm 8.4 1.8 4.2 75 1.8 WSW 28 54 15 29 1009.7 1009.9 3.6
24/02:00pm 7.3 1.2 4.6 83 1.2 WSW 26 46 14 25 1009.6 1009.8 3.6
24/01:30pm 7.8 1.0 5.1 83 1.2 WSW 30 52 16 28 1009.1 1009.3 3.2
24/01:00pm 8.4 0.7 5.3 81 1.4 W 35 54 19 29 1008.5 1008.7 3.2
24/12:31pm 8.1 0.7 5.2 82 1.3 W 33 54 18 29 1008.3 1008.5 3.2
24/12:30pm 8.1 0.9 5.7 85 1.1 W 33 46 18 25 1008.3 1008.5 3.2
24/12:10pm 7.6 0.5 5.6 87 0.9 WNW 32 50 17 27 1008.3 1008.5 3.0
24/12:00pm 7.7 1.5 6.3 91 0.6 WNW 28 43 15 23 1008.4 1008.6 3.0
24/11:43am 7.1 0.4 5.7 91 0.6 WNW 30 48 16 26 1008.4 1008.6 3.0
24/11:30am 7.5 1.5 5.5 87 0.9 WNW 26 41 14 22 1008.5 1008.7 2.8
24/11:00am 6.8 0.8 5.1 89 0.8 WNW 26 37 14 20 1008.7 1008.9 2.6
24/10:30am 7.3 2.6 5.9 91 0.6 W 20 33 11 18 1008.7 1008.9 1.6
24/10:00am 7.7 1.7 5.3 85 1.1 WNW 26 39 14 21 1008.5 1008.7 0.4
24/09:30am 8.5 2.8 4.9 78 1.6 WNW 24 33 13 18 1008.3 1008.5 0.0
24/09:00am 8.0 1.8 4.4 78 1.6 WNW 26 39 14 21 1008.0 1008.2 6.4
24/08:30am 7.7 2.7 4.7 81 1.3 W 20 32 11 17 1007.6 1007.8 6.4
24/08:00am 7.9 1.8 4.8 81 1.4 WNW 26 37 14 20 1007.0 1007.1 6.4
24/07:30am 8.0 2.7 5.1 82 1.3 WNW 22 35 12 19 1006.7 1006.8 6.4
24/07:00am 8.2 3.3 5.3 82 1.3 WNW 20 30 11 16 1006.3 1006.4 6.4
24/06:30am 8.2 3.0 5.7 84 1.1 WNW 22 35 12 19 1006.0 1006.1 6.4
24/06:00am 8.2 3.4 5.8 85 1.1 NW 20 30 11 16 1005.7 1005.8 6.4
24/05:30am 8.1 2.5 5.6 84 1.1 WNW 24 41 13 22 1005.4 1005.5 6.4
24/05:00am 8.3 3.3 6.3 87 0.9 WNW 22 30 12 16 1005.1 1005.3 6.4
24/04:30am 8.1 3.6 7.0 93 0.5 WNW 20 28 11 15 1005.0 1005.2 6.4
24/04:00am 8.0 3.6 7.6 97 0.2 NW 20 24 11 13 1005.0 1005.2 6.4
24/03:30am 8.0 3.7 7.1 94 0.4 NW 19 24 10 13 1004.9 1005.1 6.4
24/03:00am 7.9 4.4 7.1 95 0.4 NNW 15 19 8 10 1004.9 1005.1 6.4
24/02:30am 8.0 5.3 7.4 96 0.3 NNW 11 15 6 8 1004.7 1004.9 6.4
24/02:00am 7.9 5.5 7.0 94 0.4 NW 9 11 5 6 1004.7 1004.9 6.4
24/01:30am 8.0 5.6 6.9 93 0.5 W 9 13 5 7 1004.7 1004.9 6.4
24/01:00am 8.0 4.9 7.1 94 0.4 WSW 13 24 7 13 1004.7 1004.9 6.4
24/12:30am 8.3 3.9 7.2 93 0.5 WSW 20 30 11 16 1005.3 1005.4 6.2
24/12:04am 8.9 1.6 7.2 89 0.8 WNW 35 61 19 33 1005.0 1005.2 5.8
24/12:03am 8.9 1.9 7.0 88 0.9 WNW 33 61 18 33 1004.9 1005.1 5.8
24/12:01am 10.6 4.7 9.0 90 0.8 WNW 30 48 16 26 1004.6 1004.8 5.0
24/12:00am 11.0 5.6 9.6 91 0.7 NW 28 44 15 24 1004.4 1004.6 4.6
 
Date/Time
EST
Temp
°C
App
Temp
°C
Dew
Point
°C
Rel
Hum
%
Delta-T
°C
Wind Press
QNH
hPa
Press
MSL
hPa
Rain since
9am
mm
Dir  Spd
km/h
Gust
km/h
Spd
kts
Gust
kts
23/11:30pm 10.7 6.4 9.3 91 0.7 NW 22 32 12 17 1004.3 1004.5 4.0
23/11:00pm 10.8 6.6 9.9 94 0.5 NNW 22 30 12 16 1004.4 1004.6 4.0
23/10:30pm 11.1 7.1 10.3 95 0.4 NNW 22 28 12 15 1004.5 1004.7 4.0
23/10:00pm 11.5 7.6 10.7 95 0.4 NNW 22 30 12 16 1004.5 1004.7 4.0
23/09:30pm 11.3 8.3 10.7 96 0.3 NNW 17 22 9 12 1004.6 1004.8 4.0
23/09:00pm 11.2 7.7 10.3 94 0.5 NNW 19 24 10 13 1004.5 1004.7 4.0
23/08:30pm 11.2 7.5 10.0 92 0.6 NNW 20 28 11 15 1004.5 1004.7 4.0
23/08:00pm 11.2 8.1 10.4 95 0.4 N 17 22 9 12 1004.3 1004.5 4.0
23/07:30pm 11.3 8.8 11.0 98 0.2 NNW 15 17 8 9 1004.4 1004.6 4.0
23/07:00pm 11.3 8.9 11.3 100 0.0 NNW 15 22 8 12 1004.8 1005.0 4.0
23/06:30pm 11.2 9.9 11.2 100 0.0 NNW 9 11 5 6 1005.0 1005.2 3.0
23/06:00pm 11.3 10.0 11.1 99 0.1 NW 9 13 5 7 1005.1 1005.3 1.0
23/05:30pm 11.3 9.2 11.1 99 0.1 NNW 13 19 7 10 1005.3 1005.4 0.6
23/05:00pm 11.4 8.5 11.1 98 0.2 NNW 17 20 9 11 1005.5 1005.6 0.4
23/04:30pm 11.4 7.4 10.5 94 0.5 NNW 22 28 12 15 1005.7 1005.8 0.0
23/04:00pm 12.5 9.2 9.5 82 1.5 NNW 17 24 9 13 1005.6 1005.7 0.0
23/03:30pm 12.6 8.6 9.1 79 1.8 NNW 20 28 11 15 1005.9 1006.0 0.0
23/03:00pm 12.6 7.4 8.7 77 2.0 NNW 26 33 14 18 1006.3 1006.4 0.0
23/02:30pm 12.8 7.2 8.7 76 2.1 NNW 28 37 15 20 1006.5 1006.6 0.0
23/02:00pm 12.4 6.9 9.1 80 1.7 N 28 37 15 20 1006.9 1007.0 0.0
23/01:30pm 13.2 8.0 8.9 75 2.2 N 26 35 14 19 1007.6 1007.8 0.0
23/01:00pm 13.3 8.5 8.8 74 2.3 N 24 33 13 18 1008.2 1008.4 0.0
23/12:30pm 13.2 9.2 8.9 75 2.2 N 20 26 11 14 1008.8 1009.0 0.0
23/12:00pm 12.9 8.4 8.4 74 2.3 N 22 28 12 15 1009.6 1009.8 0.0
23/11:30am 12.9 8.3 8.2 73 2.3 N 22 28 12 15 1010.4 1010.6 0.0
23/11:00am 11.8 7.6 8.1 78 1.8 N 20 26 11 14 1010.7 1010.9 0.0
23/10:30am 11.5 7.8 8.0 79 1.7 N 17 22 9 12 1011.3 1011.5 0.0
23/10:00am 11.0 7.0 8.2 83 1.4 N 19 24 10 13 1011.6 1011.8 0.0
23/09:30am 10.7 7.1 8.5 86 1.1 N 17 20 9 11 1011.7 1011.9 0.0
23/09:00am 10.4 6.8 8.2 86 1.1 N 17 20 9 11 1011.6 1011.8 0.2
23/08:30am 10.2 6.9 8.1 87 1.0 N 15 20 8 11 1011.7 1011.9 0.2
23/08:00am 10.1 6.8 8.2 88 0.9 N 15 17 8 9 1011.6 1011.8 0.2
23/07:30am 10.0 6.3 8.1 88 0.9 NNW 17 20 9 11 1011.7 1011.9 0.2
23/07:00am 9.9 6.6 8.2 89 0.8 NNW 15 19 8 10 1011.6 1011.8 0.2
23/06:30am 9.7 7.2 8.3 91 0.7 NNW 11 13 6 7 1011.5 1011.7 0.2
23/06:00am 9.8 7.3 8.2 90 0.8 NNW 11 15 6 8 1011.5 1011.7 0.2
23/05:30am 9.9 6.7 8.3 90 0.8 NW 15 20 8 11 1011.6 1011.8 0.2
23/05:00am 10.1 6.9 8.5 90 0.8 NNW 15 19 8 10 1011.7 1011.9 0.2
23/04:30am 10.1 6.9 8.4 89 0.8 NNW 15 20 8 11 1011.8 1012.0 0.2
23/04:00am 10.2 7.0 8.3 88 0.9 NNW 15 19 8 10 1011.9 1012.1 0.2
23/03:30am 10.2 7.4 8.5 89 0.8 NNW 13 17 7 9 1012.1 1012.3 0.2
23/03:00am 10.1 7.6 8.2 88 0.9 NNW 11 13 6 7 1012.4 1012.5 0.2
23/02:30am 10.1 7.6 8.0 87 1.0 NW 11 13 6 7 1012.2 1012.4 0.2
23/02:00am 10.5 7.5 7.9 84 1.3 NW 13 19 7 10 1012.5 1012.6 0.2
23/01:30am 10.5 7.9 7.9 84 1.3 NNW 11 13 6 7 1012.9 1013.1 0.2
23/01:00am 10.4 8.2 7.8 84 1.3 NW 9 9 5 5 1013.0 1013.2 0.2
23/12:30am 10.5 7.9 7.7 83 1.4 NNW 11 13 6 7 1013.1 1013.3 0.2
23/12:00am 10.7 7.7 7.9 83 1.4 NNW 13 15 7 8 1013.2 1013.4 0.2
 
Date/Time
EST
Temp
°C
App
Temp
°C
Dew
Point
°C
Rel
Hum
%
Delta-T
°C
Wind Press
QNH
hPa
Press
MSL
hPa
Rain since
9am
mm
Dir  Spd
km/h
Gust
km/h
Spd
kts
Gust
kts
22/11:30pm 10.7 7.7 7.9 83 1.4 NNW 13 15 7 8 1013.4 1013.6 0.2
22/11:00pm 10.8 8.3 8.0 83 1.4 NW 11 13 6 7 1013.4 1013.6 0.2
22/10:30pm 10.8 7.9 8.2 84 1.3 NNW 13 17 7 9 1013.7 1013.9 0.2
22/10:00pm 10.8 8.3 8.2 84 1.3 NW 11 13 6 7 1013.9 1014.1 0.2
22/09:30pm 10.9 8.0 8.3 84 1.3 NNW 13 17 7 9 1013.5 1013.7 0.2
22/09:00pm 10.9 8.0 8.3 84 1.3 NNW 13 15 7 8 1013.7 1013.9 0.2
22/08:30pm 11.1 8.2 8.3 83 1.4 NW 13 15 7 8 1013.7 1013.9 0.2
22/08:00pm 11.5 8.7 8.4 81 1.5 NW 13 15 7 8 1013.5 1013.7 0.2
22/07:30pm 11.3 8.4 8.2 81 1.5 NW 13 15 7 8 1013.1 1013.3 0.2
22/07:00pm 11.3 8.4 8.2 81 1.5 NW 13 15 7 8 1012.9 1013.1 0.2
22/06:30pm 11.2 7.9 8.2 82 1.5 NW 15 17 8 9 1012.6 1012.7 0.2
22/06:00pm 10.7 8.1 7.9 83 1.4 NNW 11 15 6 8 1012.4 1012.5 0.2
22/05:30pm 10.7 8.2 6.5 75 2.0 WNW 9 13 5 7 1011.8 1012.0 0.2
22/05:00pm 12.0 8.3 6.5 69 2.6 WNW 15 19 8 10 1011.3 1011.5 0.2
22/04:30pm 13.5 10.5 7.5 67 3.0 WNW 13 20 7 11 1010.8 1011.0 0.2
22/04:00pm 13.9 10.6 6.5 61 3.6 W 13 26 7 14 1010.7 1010.9 0.2
22/03:30pm 13.3 10.0 6.4 63 3.3 W 13 17 7 9 1010.6 1010.8 0.2
22/03:00pm 14.1 9.7 6.7 61 3.6 W 19 26 10 14 1010.3 1010.5 0.0
22/02:30pm 14.0 9.1 6.8 62 3.5 W 22 33 12 18 1010.2 1010.4 0.0
22/02:00pm 14.0 9.7 7.1 63 3.4 WNW 19 24 10 13 1010.1 1010.3 0.0
22/01:30pm 13.5 9.1 7.5 67 3.0 W 20 30 11 16 1010.0 1010.2 0.0
22/01:00pm 13.3 8.5 7.5 68 2.9 W 22 32 12 17 1010.1 1010.3 0.0
22/12:30pm 13.3 9.0 7.7 69 2.8 W 20 32 11 17 1010.2 1010.4 0.0
22/12:00pm 12.6 8.3 7.9 73 2.3 WNW 20 28 11 15 1010.4 1010.6 0.0
22/11:30am 12.7 8.5 8.4 75 2.2 W 20 30 11 16 1010.7 1010.9 0.0
22/11:00am 11.9 6.8 7.6 75 2.1 W 24 32 13 17 1010.5 1010.7 0.0
22/10:30am 11.5 6.0 7.4 76 2.0 W 26 35 14 19 1010.4 1010.6 0.0
22/10:00am 11.4 6.8 8.1 80 1.6 W 22 32 12 17 1010.0 1010.2 0.0
22/09:30am 11.0 6.0 8.1 82 1.4 W 24 33 13 18 1009.2 1009.4 0.0
22/09:00am 10.7 6.6 8.6 87 1.0 W 20 28 11 15 1008.9 1009.1 7.0
22/08:30am 10.2 6.3 9.4 95 0.4 W 20 30 11 16 1008.4 1008.6 7.0
22/08:00am 10.0 6.0 9.2 95 0.4 W 20 28 11 15 1008.0 1008.2 7.0
22/07:30am 10.2 5.4 8.8 91 0.7 W 24 33 13 18 1007.5 1007.7 7.0
22/07:00am 10.4 5.6 8.8 90 0.8 W 24 39 13 21 1006.9 1007.0 7.0
22/06:30am 10.6 6.2 8.9 89 0.8 W 22 33 12 18 1006.4 1006.5 7.0

Other Formats:

Comma delimited format used in spreadsheet applications
http://www.bom.gov.au/fwo/IDN60801/IDN60801.95706.axf

JavaScript Object Notation format (JSON) in row-major order
http://www.bom.gov.au/fwo/IDN60801/IDN60801.95706.json